createdAt,value
2022-08-30T00:02:26.299Z,100548.66
2022-08-30T00:04:54.483Z,100544.41
2022-08-30T00:07:22.576Z,100551.09
2022-08-30T00:09:49.471Z,100544.50
2022-08-30T00:12:16.428Z,100543.09
2022-08-30T00:14:43.519Z,100544.66
2022-08-30T00:17:10.463Z,100535.47
2022-08-30T00:19:38.271Z,100542.28
2022-08-30T00:22:07.304Z,100544.50
2022-08-30T00:24:34.305Z,100540.75
2022-08-30T00:27:01.205Z,100542.16
2022-08-30T00:29:28.421Z,100543.69
2022-08-30T00:31:55.321Z,100541.53
2022-08-30T00:34:22.323Z,100537.88
2022-08-30T00:36:49.269Z,100531.97
2022-08-30T00:39:16.201Z,100537.25
2022-08-30T00:41:43.154Z,100535.53
2022-08-30T00:44:10.448Z,100535.53
2022-08-30T00:46:37.509Z,100533.34
2022-08-30T00:49:07.867Z,100544.88
2022-08-30T00:51:35.487Z,100535.47
2022-08-30T00:54:04.277Z,100542.31
2022-08-30T00:56:32.426Z,100538.72
2022-08-30T00:59:02.477Z,100545.38
2022-08-30T01:01:32.218Z,100551.91
2022-08-30T01:04:02.444Z,100552.38
2022-08-30T01:06:32.546Z,100548.84
2022-08-30T01:09:01.753Z,100545.81
2022-08-30T01:11:31.195Z,100548.75
2022-08-30T01:13:58.678Z,100543.13
2022-08-30T01:16:27.307Z,100542.00
2022-08-30T01:19:00.485Z,100546.59
2022-08-30T01:21:54.532Z,100543.63
2022-08-30T01:24:22.317Z,100546.31
2022-08-30T01:26:49.991Z,100551.53
2022-08-30T01:29:22.002Z,100552.50
2022-08-30T01:31:49.535Z,100557.41
2022-08-30T01:34:16.602Z,100547.69
2022-08-30T01:36:46.367Z,100544.56
2022-08-30T01:39:16.118Z,100549.13
2022-08-30T01:41:43.776Z,100548.00
2022-08-30T01:44:12.610Z,100551.47
2022-08-30T01:46:43.822Z,100554.09
2022-08-30T01:49:14.362Z,100553.16
2022-08-30T01:51:42.217Z,100544.31
2022-08-30T01:54:10.454Z,100557.84
2022-08-30T01:56:37.577Z,100543.63
2022-08-30T01:59:05.264Z,100548.03
2022-08-30T02:01:35.951Z,100548.53
2022-08-30T02:04:04.596Z,100547.41
2022-08-30T02:06:31.917Z,100552.44
2022-08-30T02:08:59.628Z,100546.63
2022-08-30T02:11:26.945Z,100548.28
2022-08-30T02:13:54.762Z,100554.09
2022-08-30T02:16:23.991Z,100557.16
2022-08-30T02:18:53.221Z,100545.50
2022-08-30T02:21:21.317Z,100551.41
2022-08-30T02:23:48.385Z,100557.56
2022-08-30T02:26:16.485Z,100547.47
2022-08-30T02:28:49.889Z,100550.16
2022-08-30T02:31:20.377Z,100549.53
2022-08-30T02:33:50.762Z,100554.31
2022-08-30T02:36:18.543Z,100550.34
2022-08-30T02:38:46.398Z,100551.38
2022-08-30T02:41:13.730Z,100548.75
2022-08-30T02:43:40.799Z,100551.81
2022-08-30T02:46:08.545Z,100559.22
2022-08-30T02:48:35.512Z,100555.88
2022-08-30T02:51:09.524Z,100560.81
2022-08-30T02:53:39.383Z,100555.75
2022-08-30T02:56:06.385Z,100565.69
2022-08-30T02:58:33.523Z,100559.72
2022-08-30T03:01:00.558Z,100560.47
2022-08-30T03:03:27.812Z,100564.91
2022-08-30T03:05:54.821Z,100566.47
2022-08-30T03:08:22.944Z,100564.66
2022-08-30T03:10:50.387Z,100569.16
2022-08-30T03:13:17.531Z,100577.50
2022-08-30T03:15:44.700Z,100583.47
2022-08-30T03:18:11.675Z,100579.53
2022-08-30T03:20:38.873Z,100574.75
2022-08-30T03:23:05.841Z,100582.50
2022-08-30T03:25:33.970Z,100581.34
2022-08-30T03:28:01.291Z,100579.81
2022-08-30T03:30:28.363Z,100583.50
2022-08-30T03:32:55.355Z,100584.81
2022-08-30T03:35:22.384Z,100592.63
2022-08-30T03:37:49.781Z,100590.44
2022-08-30T03:40:23.437Z,100590.47
2022-08-30T03:42:50.851Z,100590.53
2022-08-30T03:45:19.384Z,100600.59
2022-08-30T03:47:46.741Z,100605.91
2022-08-30T03:50:15.770Z,100599.03
2022-08-30T03:52:42.980Z,100610.56
2022-08-30T03:55:10.062Z,100607.53
2022-08-30T03:57:36.988Z,100613.47
2022-08-30T04:00:07.060Z,100617.28
2022-08-30T04:02:38.868Z,100618.34
2022-08-30T04:05:06.400Z,100612.00
2022-08-30T04:07:33.326Z,100618.03
2022-08-30T04:10:01.052Z,100624.56
2022-08-30T04:12:28.070Z,100625.03
2022-08-30T04:14:55.121Z,100622.31
2022-08-30T04:17:22.112Z,100624.03
2022-08-30T04:19:49.038Z,100618.69
2022-08-30T04:22:16.204Z,100628.06
2022-08-30T04:24:43.332Z,100633.09
2022-08-30T04:27:10.768Z,100629.41
2022-08-30T04:29:37.777Z,100626.56
2022-08-30T04:32:05.031Z,100638.22
2022-08-30T04:34:32.147Z,100637.34
2022-08-30T04:36:59.163Z,100645.28
2022-08-30T04:39:26.226Z,100635.13
2022-08-30T04:41:53.285Z,100637.97
2022-08-30T04:44:20.268Z,100633.75
2022-08-30T04:46:47.970Z,100631.84
2022-08-30T04:49:15.063Z,100636.88
2022-08-30T04:51:42.131Z,100643.75
2022-08-30T04:54:09.070Z,100636.50
2022-08-30T04:56:36.118Z,100640.84
2022-08-30T04:59:03.104Z,100642.97
2022-08-30T05:01:32.242Z,100643.28
2022-08-30T05:04:13.795Z,100651.75
2022-08-30T05:06:40.887Z,100648.25
2022-08-30T05:09:07.776Z,100650.50
2022-08-30T05:11:34.832Z,100657.13
2022-08-30T05:14:01.779Z,100653.34
2022-08-30T05:16:28.823Z,100656.13
2022-08-30T05:18:55.896Z,100655.00
2022-08-30T05:21:26.679Z,100651.94
2022-08-30T05:23:56.196Z,100652.91
2022-08-30T05:26:27.642Z,100658.78
2022-08-30T05:28:55.236Z,100658.25
2022-08-30T05:31:28.720Z,100657.31
2022-08-30T05:33:56.058Z,100660.41
2022-08-30T05:36:26.707Z,100667.88
2022-08-30T05:38:54.734Z,100664.97
2022-08-30T05:41:26.523Z,100660.19
2022-08-30T05:43:56.819Z,100676.94
2022-08-30T05:46:24.536Z,100675.72
2022-08-30T05:48:52.108Z,100671.00
2022-08-30T05:51:21.768Z,100671.78
2022-08-30T05:53:50.152Z,100675.34
2022-08-30T05:56:20.696Z,100671.84
2022-08-30T05:58:48.174Z,100675.16
2022-08-30T06:01:23.168Z,100665.22
2022-08-30T06:03:53.667Z,100659.56
2022-08-30T06:06:22.729Z,100660.63
2022-08-30T06:08:50.486Z,100659.13
2022-08-30T06:11:20.135Z,100655.97
2022-08-30T06:13:48.108Z,100654.78
2022-08-30T06:16:17.852Z,100655.97
2022-08-30T06:18:45.212Z,100659.25
2022-08-30T06:21:26.102Z,100661.25
2022-08-30T06:23:54.391Z,100670.88
2022-08-30T06:26:21.618Z,100671.00
2022-08-30T06:28:49.479Z,100664.84
2022-08-30T06:31:18.342Z,100658.59
2022-08-30T06:33:45.885Z,100654.69
2022-08-30T06:36:23.090Z,100661.25
2022-08-30T06:38:52.364Z,100663.47
2022-08-30T06:41:22.528Z,100665.47
2022-08-30T06:43:50.030Z,100661.25
2022-08-30T06:46:26.479Z,100667.84
2022-08-30T06:48:56.095Z,100668.31
2022-08-30T06:51:43.664Z,100665.28
2022-08-30T06:54:12.508Z,100668.41
2022-08-30T06:56:55.297Z,100662.28
2022-08-30T06:59:24.792Z,100662.38
2022-08-30T07:01:52.222Z,100667.22
2022-08-30T07:04:19.237Z,100667.09
2022-08-30T07:06:46.285Z,100667.91
2022-08-30T07:09:13.231Z,100671.00
2022-08-30T07:11:42.062Z,100664.66
2022-08-30T07:14:09.405Z,100662.94
2022-08-30T07:16:36.556Z,100664.06
2022-08-30T07:19:05.427Z,100666.16
2022-08-30T07:21:33.872Z,100668.53
2022-08-30T07:24:01.662Z,100664.78
2022-08-30T07:26:32.907Z,100664.06
2022-08-30T07:29:00.049Z,100669.03
2022-08-30T07:31:27.006Z,100668.63
2022-08-30T07:33:54.707Z,100674.69
2022-08-30T07:36:22.800Z,100660.00
2022-08-30T07:38:51.558Z,100669.25
2022-08-30T07:41:35.698Z,100665.47
2022-08-30T07:44:02.967Z,100662.69
2022-08-30T07:46:30.195Z,100656.34
2022-08-30T07:49:00.088Z,100652.38
2022-08-30T07:51:29.224Z,100655.53
2022-08-30T07:53:56.834Z,100653.13
2022-08-30T07:56:24.998Z,100655.19
2022-08-30T07:58:53.042Z,100649.47
2022-08-30T08:01:22.341Z,100651.34
2022-08-30T08:03:50.626Z,100653.00
2022-08-30T08:06:19.991Z,100646.50
2022-08-30T08:08:47.201Z,100648.44
2022-08-30T08:11:28.439Z,100647.84
2022-08-30T08:13:58.745Z,100649.09
2022-08-30T08:16:27.533Z,100649.03
2022-08-30T08:18:55.510Z,100642.53
2022-08-30T08:21:24.109Z,100645.94
2022-08-30T08:23:51.562Z,100640.16
2022-08-30T08:26:19.878Z,100643.16
2022-08-30T08:28:47.505Z,100638.38
2022-08-30T08:31:27.120Z,100636.63
2022-08-30T08:33:56.534Z,100646.31
2022-08-30T08:36:23.597Z,100631.56
2022-08-30T08:38:50.679Z,100633.63
2022-08-30T08:41:35.935Z,100629.44
2022-08-30T08:44:19.194Z,100619.09
2022-08-30T08:46:52.408Z,100619.78
2022-08-30T08:49:19.613Z,100622.06
2022-08-30T08:52:05.697Z,100626.03
2022-08-30T08:54:52.713Z,100630.91
2022-08-30T08:57:24.462Z,100627.13
2022-08-30T08:59:54.596Z,100619.97
2022-08-30T09:02:30.344Z,100626.22
2022-08-30T09:05:02.081Z,100627.47
2022-08-30T09:07:41.414Z,100630.88
2022-08-30T09:10:08.925Z,100623.03
2022-08-30T09:12:36.153Z,100624.84
2022-08-30T09:15:11.717Z,100624.78
2022-08-30T09:17:52.502Z,100618.59
2022-08-30T09:20:41.413Z,100622.91
2022-08-30T09:23:14.416Z,100615.38
2022-08-30T09:26:05.401Z,100612.25
2022-08-30T09:28:43.920Z,100612.50
2022-08-30T09:31:23.718Z,100611.91
2022-08-30T09:34:15.835Z,100605.88
2022-08-30T09:36:52.067Z,100615.03
2022-08-30T09:39:41.486Z,100622.22
2022-08-30T09:42:20.818Z,100613.31
2022-08-30T09:44:47.862Z,100608.72
2022-08-30T09:47:31.772Z,100603.84
2022-08-30T09:50:27.339Z,100606.47
2022-08-30T09:53:11.931Z,100600.03
2022-08-30T09:56:03.637Z,100598.94
2022-08-30T09:58:52.417Z,100600.75
2022-08-30T10:01:24.979Z,100597.84
2022-08-30T10:04:02.473Z,100599.41
2022-08-30T10:07:16.499Z,100604.13
2022-08-30T10:10:03.007Z,100596.28
2022-08-30T10:12:57.292Z,100604.25
2022-08-30T10:15:30.980Z,100591.50
2022-08-30T10:18:06.997Z,100608.78
2022-08-30T10:20:59.670Z,100603.75
2022-08-30T10:23:40.804Z,100587.13
2022-08-30T10:26:26.626Z,100597.41
2022-08-30T10:29:04.583Z,100587.75
2022-08-30T10:31:56.526Z,100586.06
2022-08-30T10:34:54.639Z,100596.47
2022-08-30T10:37:25.709Z,100599.22
2022-08-30T10:40:22.473Z,100584.19
2022-08-30T10:42:52.864Z,100594.41
2022-08-30T10:45:22.324Z,100593.41
2022-08-30T10:47:59.860Z,100597.66
2022-08-30T10:50:41.033Z,100593.41
2022-08-30T10:53:21.575Z,100593.09
2022-08-30T10:56:05.980Z,100581.94
2022-08-30T10:58:33.506Z,100584.06
2022-08-30T11:01:06.198Z,100589.66
2022-08-30T11:03:39.832Z,100582.78
2022-08-30T11:06:27.576Z,100587.09
2022-08-30T11:09:09.928Z,100575.66
2022-08-30T11:11:40.773Z,100578.66
2022-08-30T11:14:12.894Z,100568.88
2022-08-30T11:16:44.132Z,100575.94
2022-08-30T11:19:35.324Z,100559.72
2022-08-30T11:22:21.946Z,100577.00
2022-08-30T11:25:10.006Z,100554.50
2022-08-30T11:27:51.472Z,100555.13
2022-08-30T11:30:26.727Z,100541.59
2022-08-30T11:33:17.478Z,100559.00
2022-08-30T11:35:52.771Z,100542.09
2022-08-30T11:38:25.683Z,100558.06
2022-08-30T11:41:30.060Z,100536.13
2022-08-30T11:44:13.583Z,100537.56
2022-08-30T11:46:42.282Z,100532.44
2022-08-30T11:49:15.616Z,100539.84
2022-08-30T11:55:03.835Z,100526.13
2022-08-30T11:57:52.214Z,100520.13
2022-08-30T12:00:35.134Z,100512.09
2022-08-30T12:03:07.732Z,100521.34
2022-08-30T12:05:48.192Z,100514.38
2022-08-30T12:08:21.337Z,100522.56
2022-08-30T12:11:11.257Z,100513.09
2022-08-30T12:13:38.211Z,100521.16
2022-08-30T12:16:14.223Z,100512.34
2022-08-30T12:18:49.649Z,100511.53
2022-08-30T12:21:22.710Z,100526.69
2022-08-30T12:24:04.365Z,100517.38
2022-08-30T12:26:38.218Z,100528.00
2022-08-30T12:29:26.953Z,100519.53
2022-08-30T12:31:59.105Z,100517.25
2022-08-30T12:34:41.020Z,100516.06
2022-08-30T12:37:28.894Z,100521.81
2022-08-30T12:40:23.346Z,100516.81
2022-08-30T12:43:00.360Z,100507.72
2022-08-30T12:45:50.600Z,100513.50
2022-08-30T12:48:19.746Z,100519.28
2022-08-30T12:50:54.461Z,100516.38
2022-08-30T12:53:27.962Z,100512.97
2022-08-30T12:55:55.497Z,100507.50
2022-08-30T12:58:36.919Z,100506.69
2022-08-30T13:01:18.517Z,100501.06
2022-08-30T13:03:59.809Z,100512.09
2022-08-30T13:06:43.875Z,100504.56
2022-08-30T13:09:39.143Z,100493.25
2022-08-30T13:12:09.930Z,100496.19
2022-08-30T13:14:43.596Z,100489.13
2022-08-30T13:17:20.418Z,100494.34
2022-08-30T13:20:22.197Z,100494.06
2022-08-30T13:23:09.758Z,100491.78
2022-08-30T13:25:39.736Z,100496.53
2022-08-30T13:28:08.445Z,100478.75
2022-08-30T13:30:36.075Z,100474.44
2022-08-30T13:33:03.298Z,100488.75
2022-08-30T13:35:31.880Z,100477.88
2022-08-30T13:38:02.035Z,100474.50
2022-08-30T13:40:29.194Z,100479.94
2022-08-30T13:42:56.980Z,100478.22
2022-08-30T13:45:41.700Z,100466.03
2022-08-30T13:48:10.913Z,100464.19
2022-08-30T13:50:38.267Z,100469.34
2022-08-30T13:53:05.863Z,100455.19
2022-08-30T13:55:33.850Z,100458.41
2022-08-30T13:58:00.857Z,100470.38
2022-08-30T14:00:28.858Z,100462.22
2022-08-30T14:02:57.553Z,100458.88
2022-08-30T14:06:10.219Z,100463.47
2022-08-30T14:08:45.197Z,100466.94
2022-08-30T14:11:18.508Z,100457.31
2022-08-30T14:16:36.105Z,100460.66
2022-08-30T14:19:03.576Z,100456.97
2022-08-30T14:21:33.145Z,100456.84
2022-08-30T14:24:00.279Z,100455.72
2022-08-30T14:26:32.750Z,100452.69
2022-08-30T14:29:03.546Z,100457.38
2022-08-30T14:31:32.717Z,100469.97
2022-08-30T14:34:01.534Z,100460.19
2022-08-30T14:36:30.957Z,100461.50
2022-08-30T14:38:58.501Z,100451.91
2022-08-30T14:41:25.697Z,100452.97
2022-08-30T14:43:53.030Z,100456.97
2022-08-30T14:46:20.279Z,100446.25
2022-08-30T14:48:47.256Z,100448.31
2022-08-30T14:51:18.782Z,100450.44
2022-08-30T14:53:47.106Z,100455.84
2022-08-30T14:56:16.776Z,100445.75
2022-08-30T14:58:50.749Z,100450.13
2022-08-30T15:01:19.225Z,100449.91
2022-08-30T15:03:46.675Z,100443.69
2022-08-30T15:06:14.267Z,100440.44
2022-08-30T15:08:41.675Z,100448.59
2022-08-30T15:11:17.852Z,100433.25
2022-08-30T15:13:45.868Z,100439.75
2022-08-30T15:16:20.544Z,100437.81
2022-08-30T15:18:48.171Z,100444.03
2022-08-30T15:21:21.889Z,100437.13
2022-08-30T15:23:49.732Z,100434.28
2022-08-30T15:26:18.570Z,100428.50
2022-08-30T15:28:45.558Z,100427.41
2022-08-30T15:31:13.095Z,100429.72
2022-08-30T15:33:40.292Z,100437.22
2022-08-30T15:36:09.003Z,100435.03
2022-08-30T15:38:36.500Z,100433.28
2022-08-30T15:41:07.459Z,100433.78
2022-08-30T15:43:35.125Z,100435.28
2022-08-30T15:46:19.662Z,100426.94
2022-08-30T15:48:47.177Z,100429.88
2022-08-30T15:51:16.761Z,100424.97
2022-08-30T15:53:45.197Z,100428.84
2022-08-30T15:56:12.546Z,100423.47
2022-08-30T15:58:40.175Z,100417.31
2022-08-30T16:01:07.930Z,100425.91
2022-08-30T16:03:35.967Z,100426.63
2022-08-30T16:06:05.098Z,100424.59
2022-08-30T16:08:32.102Z,100419.94
2022-08-30T16:10:59.004Z,100427.16
2022-08-30T16:13:25.885Z,100421.69
2022-08-30T16:15:52.914Z,100418.47
2022-08-30T16:18:19.905Z,100422.28
2022-08-30T16:20:47.412Z,100420.19
2022-08-30T16:23:14.369Z,100428.56
2022-08-30T16:25:41.546Z,100425.19
2022-08-30T16:28:09.572Z,100419.69
2022-08-30T16:30:37.177Z,100425.31
2022-08-30T16:33:04.289Z,100424.13
2022-08-30T16:35:33.118Z,100423.75
2022-08-30T16:38:00.116Z,100429.28
2022-08-30T16:40:27.572Z,100431.88
2022-08-30T16:42:54.562Z,100430.50
2022-08-30T16:45:21.501Z,100435.38
2022-08-30T16:47:51.124Z,100436.16
2022-08-30T16:50:21.600Z,100431.50
2022-08-30T16:52:48.515Z,100436.63
2022-08-30T16:55:16.038Z,100441.41
2022-08-30T16:57:43.952Z,100446.59
2022-08-30T17:00:13.263Z,100439.22
2022-08-30T17:02:42.659Z,100444.78
2022-08-30T17:05:21.233Z,100437.09
2022-08-30T17:07:48.119Z,100442.16
2022-08-30T17:10:15.556Z,100442.16
2022-08-30T17:12:50.254Z,100443.59
2022-08-30T17:15:17.615Z,100455.19
2022-08-30T17:17:44.678Z,100466.00
2022-08-30T17:20:12.612Z,100475.34
2022-08-30T17:22:40.444Z,100477.16
2022-08-30T17:25:08.740Z,100474.47
2022-08-30T17:27:36.271Z,100482.81
2022-08-30T17:30:06.711Z,100484.91
2022-08-30T17:32:34.385Z,100495.25
2022-08-30T17:35:02.122Z,100483.72
2022-08-30T17:37:29.038Z,100500.16
2022-08-30T17:39:56.185Z,100494.97
2022-08-30T17:42:23.139Z,100501.63
2022-08-30T17:44:58.031Z,100503.81
2022-08-30T17:47:28.287Z,100498.06
2022-08-30T17:49:55.650Z,100504.66
2022-08-30T17:52:22.558Z,100500.44
2022-08-30T17:54:50.662Z,100501.66
2022-08-30T17:57:18.202Z,100512.09
2022-08-30T17:59:45.911Z,100506.56
2022-08-30T18:02:14.511Z,100507.25
2022-08-30T18:04:42.716Z,100513.25
2022-08-30T18:09:58.853Z,100513.53
2022-08-30T18:12:27.585Z,100514.41
2022-08-30T18:14:54.503Z,100517.75
2022-08-30T18:17:21.637Z,100514.78
2022-08-30T18:19:49.069Z,100521.75
2022-08-30T18:22:16.723Z,100530.38
2022-08-30T18:24:44.982Z,100526.22
2022-08-30T18:27:12.130Z,100528.66
2022-08-30T18:29:40.535Z,100524.16
2022-08-30T18:32:09.206Z,100528.03
2022-08-30T18:34:36.444Z,100537.06
2022-08-30T18:37:03.502Z,100531.06
2022-08-30T18:39:34.643Z,100536.41
2022-08-30T18:42:02.965Z,100535.91
2022-08-30T18:44:33.291Z,100535.25
2022-08-30T18:47:01.950Z,100535.31
2022-08-30T18:49:32.781Z,100542.09
2022-08-30T18:52:01.059Z,100540.59
2022-08-30T18:54:28.194Z,100538.03
2022-08-30T18:56:55.177Z,100536.28
2022-08-30T18:59:22.090Z,100536.16
2022-08-30T19:01:50.266Z,100533.19
2022-08-30T19:04:22.417Z,100533.38
2022-08-30T19:06:57.342Z,100529.16
2022-08-30T19:09:24.281Z,100533.69
2022-08-30T19:11:53.969Z,100534.63
2022-08-30T19:14:20.912Z,100543.09
2022-08-30T19:16:48.236Z,100537.19
2022-08-30T19:19:15.672Z,100537.94
2022-08-30T19:21:42.876Z,100534.78
2022-08-30T19:24:10.134Z,100534.78
2022-08-30T19:26:38.496Z,100531.97
2022-08-30T19:29:06.526Z,100527.91
2022-08-30T19:31:34.122Z,100526.38
2022-08-30T19:34:01.148Z,100521.41
2022-08-30T19:36:29.046Z,100538.06
2022-08-30T19:38:56.225Z,100536.97
2022-08-30T19:41:23.747Z,100536.50
2022-08-30T19:43:51.993Z,100539.59
2022-08-30T19:46:18.907Z,100528.94
2022-08-30T19:48:45.870Z,100537.31
2022-08-30T19:51:15.190Z,100530.31
2022-08-30T19:53:43.470Z,100530.22
2022-08-30T19:56:11.617Z,100536.28
2022-08-30T19:58:39.023Z,100539.41
2022-08-30T20:01:12.345Z,100534.44
2022-08-30T20:03:54.390Z,100529.59
2022-08-30T20:06:23.950Z,100533.81
2022-08-30T20:08:50.919Z,100533.53
2022-08-30T20:11:23.616Z,100529.28
2022-08-30T20:13:50.684Z,100528.41
2022-08-30T20:16:17.981Z,100526.25
2022-08-30T20:18:45.376Z,100523.03
2022-08-30T20:21:14.683Z,100525.16
2022-08-30T20:23:43.295Z,100518.06
2022-08-30T20:24:26.427Z,100506.63
2022-08-30T20:26:11.851Z,100523.00
2022-08-30T20:28:39.902Z,100520.81
2022-08-30T20:31:08.146Z,100524.25
2022-08-30T20:33:39.258Z,100517.00
2022-08-30T20:36:09.928Z,100511.28
2022-08-30T20:38:37.633Z,100515.69
2022-08-30T20:41:10.948Z,100513.63
2022-08-30T20:43:38.681Z,100518.50
2022-08-30T20:46:14.884Z,100522.50
2022-08-30T20:48:43.568Z,100506.31
2022-08-30T20:51:15.559Z,100511.69
2022-08-30T20:53:43.396Z,100506.97
2022-08-30T20:56:16.533Z,100498.34
2022-08-30T20:58:44.063Z,100501.03
2022-08-30T21:01:11.918Z,100503.00
2022-08-30T21:03:40.243Z,100508.44
2022-08-30T21:06:07.615Z,100509.06
2022-08-30T21:08:34.905Z,100512.84
2022-08-30T21:11:02.141Z,100506.44
2022-08-30T21:13:30.112Z,100499.47
2022-08-30T21:16:00.621Z,100509.03
2022-08-30T21:18:33.214Z,100511.94
2022-08-30T21:21:08.350Z,100511.47
2022-08-30T21:23:35.849Z,100508.38
2022-08-30T21:26:09.764Z,100502.31
2022-08-30T21:28:36.966Z,100499.88
2022-08-30T21:31:07.383Z,100494.78
2022-08-30T21:33:34.788Z,100491.66
2022-08-30T21:36:20.503Z,100492.44
2022-08-30T21:38:47.503Z,100494.81
2022-08-30T21:41:15.102Z,100499.31
2022-08-30T21:43:42.017Z,100497.41
2022-08-30T21:46:10.451Z,100495.97
2022-08-30T21:48:37.831Z,100494.84
2022-08-30T21:51:09.873Z,100496.09
2022-08-30T21:53:37.729Z,100491.66
2022-08-30T21:56:31.930Z,100488.63
2022-08-30T21:58:58.950Z,100497.03
2022-08-30T22:01:28.852Z,100494.25
2022-08-30T22:03:58.380Z,100502.47
2022-08-30T22:06:30.776Z,100496.81
2022-08-30T22:09:01.254Z,100501.03
2022-08-30T22:11:29.391Z,100496.72
2022-08-30T22:13:56.365Z,100488.31
2022-08-30T22:16:24.309Z,100495.19
2022-08-30T22:18:51.542Z,100497.59
2022-08-30T22:21:22.961Z,100494.41
2022-08-30T22:23:50.871Z,100496.69
2022-08-30T22:26:19.372Z,100496.13
2022-08-30T22:28:46.890Z,100496.81
2022-08-30T22:31:15.568Z,100501.53
2022-08-30T22:33:43.863Z,100501.25
2022-08-30T22:36:14.713Z,100501.03
2022-08-30T22:38:41.661Z,100501.91
2022-08-30T22:41:16.663Z,100508.56
2022-08-30T22:43:44.837Z,100503.34
2022-08-30T22:46:12.420Z,100506.22
2022-08-30T22:48:41.937Z,100494.13
2022-08-30T22:51:10.884Z,100493.69
2022-08-30T22:53:37.880Z,100496.41
2022-08-30T22:56:20.603Z,100496.75
2022-08-30T22:58:48.780Z,100488.00
2022-08-30T23:01:20.538Z,100493.28
2022-08-30T23:03:47.567Z,100495.69
2022-08-30T23:06:14.555Z,100494.06
2022-08-30T23:11:08.904Z,100493.66
2022-08-30T23:13:35.893Z,100490.69
2022-08-30T23:16:05.390Z,100483.81
2022-08-30T23:18:33.207Z,100480.22
2022-08-30T23:21:13.046Z,100483.09
2022-08-30T23:23:59.480Z,100482.50
2022-08-30T23:26:45.573Z,100484.41
2022-08-30T23:29:31.735Z,100481.34
2022-08-30T23:32:17.345Z,100477.28
2022-08-30T23:35:03.435Z,100479.09
2022-08-30T23:37:53.131Z,100477.50
2022-08-30T23:40:40.899Z,100481.63
2022-08-30T23:43:27.412Z,100486.13
2022-08-30T23:46:18.778Z,100483.97
2022-08-30T23:49:06.445Z,100491.09
2022-08-30T23:51:52.620Z,100484.16
2022-08-30T23:54:38.185Z,100477.47
2022-08-30T23:57:24.294Z,100478.09
